Hunters Hill, Australia
Current Conditions -  °F | °C
As of 2:00 PM on Monday 20 Oct 2014 (Local Time) from YMAY Reporting Station
Clear Clear  
Wind Chill: 25°   Ceiling: Unl
Heat Index: 26°   Visibility: 6mi
Dew Point: 12°   Wind: 8mph
Humidity: 44%   Direction: 150°SSE
Pressure: 30.21"   Gusts: NA
Location:  36.22°S, 147.53°E
Report Text: YMAY 200300Z AUTO 15007KT 9999 // NCD 25/12 Q1023
Loading
Personal Weather Stations






























Interactive Weather Map
Tropical Storm Tracking
New forecast layout! Learn more

10-Day Weather Forecast

Advertisements
Track Severe Weather on mobile